Terminal Aerodrome Forecast
Issued by NWS Twin Cities, MN

Current Version | Previous Version | Text Only | Print | Product List | Glossary On
Versions: 1 2 3 4 5 6 7 8 9 10 11 12 13 14 15 16 17 18 19 20 21 22
666
FTUS43 KMPX 252320
TAFMSP
TAF
KMSP 252320Z 2600/2706 VRB04KT 5SM -SHRA BR SCT009 SCT025 OVC050
      TEMPO 2600/2601 4SM -SHRA BR BKN009 OVC025
     FM260100 03006KT 3SM -SHRA BR SCT008 OVC020
     FM260600 03009KT 5SM -RA BR OVC008
     FM261200 36012G21KT P6SM -SHRA OVC008
     FM261700 34012G18KT P6SM BKN008 OVC012
     FM262300 34010KT P6SM SCT010 BKN025=

USA.gov is the U.S. government's official web portal to all federal, state and local government web resources and services.